createdAt,value
2022-10-26T00:02:39.790Z,76.83
2022-10-26T00:07:48.079Z,76.79
2022-10-26T00:12:56.916Z,76.76
2022-10-26T00:18:05.781Z,76.63
2022-10-26T00:23:14.097Z,76.87
2022-10-26T00:28:22.378Z,76.77
2022-10-26T00:33:30.876Z,76.77
2022-10-26T00:38:40.003Z,76.76
2022-10-26T00:43:48.931Z,76.51
2022-10-26T00:49:01.807Z,76.46
2022-10-26T00:54:14.216Z,76.38
2022-10-26T00:59:23.590Z,76.56
2022-10-26T01:04:31.726Z,76.51
2022-10-26T01:09:40.222Z,76.49
2022-10-26T01:14:48.586Z,76.47
2022-10-26T01:20:36.057Z,76.40
2022-10-26T01:26:14.733Z,76.45
2022-10-26T01:31:31.197Z,76.36
2022-10-26T01:36:46.490Z,76.07
2022-10-26T01:41:58.099Z,76.20
2022-10-26T01:47:08.792Z,75.95
2022-10-26T01:52:17.578Z,76.12
2022-10-26T01:57:25.871Z,76.01
2022-10-26T02:02:50.390Z,76.15
2022-10-26T02:08:07.823Z,76.16
2022-10-26T02:13:23.536Z,76.18
2022-10-26T02:18:38.220Z,76.09
2022-10-26T02:23:49.854Z,76.45
2022-10-26T02:29:03.595Z,76.31
2022-10-26T02:34:15.415Z,76.41
2022-10-26T02:39:25.634Z,76.26
2022-10-26T02:44:39.526Z,76.09
2022-10-26T02:49:47.934Z,76.16
2022-10-26T02:55:03.222Z,76.33
2022-10-26T03:00:15.239Z,76.39
2022-10-26T03:05:26.506Z,76.35
2022-10-26T03:10:38.955Z,76.41
2022-10-26T03:15:47.053Z,76.27
2022-10-26T03:20:55.268Z,76.44
2022-10-26T03:26:03.816Z,76.25
2022-10-26T03:31:12.556Z,76.42
2022-10-26T03:36:19.096Z,76.39
2022-10-26T03:41:27.517Z,76.37
2022-10-26T03:46:36.069Z,76.56
2022-10-26T03:51:44.427Z,76.19
2022-10-26T03:56:55.181Z,76.12
2022-10-26T04:02:03.687Z,75.96
2022-10-26T04:07:11.752Z,75.87
2022-10-26T04:12:20.156Z,75.81
2022-10-26T04:17:28.906Z,75.87
2022-10-26T04:22:37.677Z,75.94
2022-10-26T04:27:46.079Z,76.08
2022-10-26T04:32:54.549Z,76.17
2022-10-26T04:38:07.970Z,76.02
2022-10-26T04:43:16.841Z,75.89
2022-10-26T04:53:40.277Z,76.00
2022-10-26T04:58:48.557Z,76.29
2022-10-26T05:03:57.271Z,76.19
2022-10-26T05:09:05.830Z,76.37
2022-10-26T05:14:14.805Z,76.48
2022-10-26T05:19:23.222Z,76.18
2022-10-26T05:24:31.575Z,76.32
2022-10-26T05:29:40.300Z,76.49
2022-10-26T05:34:49.001Z,76.66
2022-10-26T05:39:57.241Z,76.27
2022-10-26T05:45:05.556Z,76.67
2022-10-26T05:50:15.103Z,76.69
2022-10-26T05:55:25.257Z,76.69
2022-10-26T06:00:35.357Z,76.63
2022-10-26T06:05:54.047Z,76.53
2022-10-26T06:11:07.554Z,76.52
2022-10-26T06:16:33.941Z,76.96
2022-10-26T06:21:59.701Z,77.00
2022-10-26T06:27:19.554Z,77.15
2022-10-26T06:32:28.989Z,77.04
2022-10-26T06:37:39.465Z,76.84
2022-10-26T06:42:47.888Z,76.64
2022-10-26T06:48:05.075Z,76.72
2022-10-26T06:53:24.028Z,76.62
2022-10-26T06:58:35.380Z,76.40
2022-10-26T07:03:44.663Z,76.38
2022-10-26T07:08:53.512Z,76.50
2022-10-26T07:14:01.192Z,76.45
2022-10-26T07:19:09.710Z,76.54
2022-10-26T07:24:17.973Z,76.24
2022-10-26T07:29:27.030Z,76.33
2022-10-26T07:34:35.314Z,76.10
2022-10-26T07:39:43.662Z,76.15
2022-10-26T07:44:52.033Z,76.19
2022-10-26T07:50:00.170Z,76.21
2022-10-26T07:55:09.943Z,76.27
2022-10-26T08:00:19.893Z,76.17
2022-10-26T08:05:28.282Z,75.81
2022-10-26T08:10:36.828Z,75.90
2022-10-26T08:15:45.540Z,76.06
2022-10-26T08:20:56.375Z,75.79
2022-10-26T08:26:12.779Z,75.52
2022-10-26T08:31:21.642Z,75.92
2022-10-26T08:36:31.197Z,75.88
2022-10-26T08:41:43.387Z,75.85
2022-10-26T08:46:52.504Z,75.38
2022-10-26T08:52:03.882Z,75.71
2022-10-26T08:57:21.458Z,75.74
2022-10-26T09:03:20.828Z,75.79
2022-10-26T09:08:37.242Z,75.30
2022-10-26T09:14:00.522Z,75.39
2022-10-26T09:19:29.178Z,75.34
2022-10-26T09:24:41.008Z,75.07
2022-10-26T09:29:49.922Z,74.96
2022-10-26T09:35:01.514Z,75.19
2022-10-26T09:40:17.399Z,75.21
2022-10-26T09:45:30.837Z,75.43
2022-10-26T09:50:41.627Z,75.01
2022-10-26T09:55:51.373Z,75.11
2022-10-26T10:00:59.322Z,75.26
2022-10-26T10:06:21.639Z,74.93
2022-10-26T10:11:41.953Z,75.06
2022-10-26T10:16:57.315Z,74.86
2022-10-26T10:22:20.514Z,74.65
2022-10-26T10:27:29.041Z,74.39
2022-10-26T10:32:39.194Z,74.28
2022-10-26T10:37:48.224Z,74.89
2022-10-26T10:43:04.128Z,74.39
2022-10-26T10:48:20.852Z,74.49
2022-10-26T10:53:33.564Z,74.23
2022-10-26T10:58:52.385Z,74.64
2022-10-26T11:04:19.169Z,74.44
2022-10-26T11:09:30.196Z,74.11
2022-10-26T11:14:44.161Z,74.08
2022-10-26T11:19:57.818Z,73.73
2022-10-26T11:25:08.929Z,73.74
2022-10-26T11:30:22.064Z,73.97
2022-10-26T11:35:34.269Z,73.20
2022-10-26T11:40:44.287Z,73.18
2022-10-26T11:46:01.966Z,72.91
2022-10-26T11:51:19.691Z,72.81
2022-10-26T11:56:35.708Z,72.67
2022-10-26T12:01:43.117Z,72.86
2022-10-26T12:06:53.640Z,72.72
2022-10-26T12:12:06.484Z,73.03
2022-10-26T12:17:18.490Z,72.80
2022-10-26T12:22:35.834Z,72.28
2022-10-26T12:27:56.816Z,72.54
2022-10-26T12:33:05.787Z,72.54
2022-10-26T12:38:56.528Z,72.62
2022-10-26T12:44:33.045Z,72.22
2022-10-26T12:50:02.966Z,71.91
2022-10-26T12:55:43.436Z,71.50
2022-10-26T13:01:09.943Z,71.92
2022-10-26T13:06:36.063Z,71.69
2022-10-26T13:11:49.198Z,71.68
2022-10-26T13:16:57.415Z,71.51
2022-10-26T13:22:05.333Z,71.34
2022-10-26T13:27:27.747Z,71.14
2022-10-26T13:32:38.005Z,70.82
2022-10-26T13:37:50.016Z,70.60
2022-10-26T13:43:00.525Z,70.50
2022-10-26T13:48:15.194Z,70.37
2022-10-26T13:53:29.755Z,70.40
2022-10-26T13:58:43.639Z,70.25
2022-10-26T14:03:51.875Z,69.97
2022-10-26T14:09:02.051Z,69.83
2022-10-26T14:14:15.810Z,69.49
2022-10-26T14:19:27.793Z,69.53
2022-10-26T14:24:53.101Z,69.84
2022-10-26T14:30:21.582Z,69.21
2022-10-26T14:35:33.881Z,69.40
2022-10-26T14:40:41.719Z,69.58
2022-10-26T14:45:52.305Z,69.35
2022-10-26T14:51:08.938Z,69.10
2022-10-26T14:56:26.955Z,68.96
2022-10-26T15:01:49.994Z,68.82
2022-10-26T15:07:10.253Z,68.76
2022-10-26T15:12:24.980Z,68.50
2022-10-26T15:17:39.659Z,68.78
2022-10-26T15:22:51.406Z,68.67
2022-10-26T15:28:10.641Z,68.32
2022-10-26T15:33:24.075Z,68.45
2022-10-26T15:38:32.147Z,68.59
2022-10-26T15:43:39.757Z,68.81
2022-10-26T15:48:50.426Z,68.61
2022-10-26T15:53:58.958Z,68.63
2022-10-26T15:59:08.236Z,68.67
2022-10-26T16:04:16.089Z,68.65
2022-10-26T16:09:23.872Z,68.51
2022-10-26T16:14:33.515Z,68.54
2022-10-26T16:19:46.122Z,68.83
2022-10-26T16:24:53.591Z,68.92
2022-10-26T16:30:01.153Z,69.30
2022-10-26T16:35:09.721Z,69.33
2022-10-26T16:40:18.061Z,69.22
2022-10-26T16:45:25.908Z,69.31
2022-10-26T16:50:36.296Z,68.81
2022-10-26T16:55:44.525Z,68.37
2022-10-26T17:00:57.800Z,68.06
2022-10-26T17:06:08.440Z,67.77
2022-10-26T17:11:18.020Z,67.43
2022-10-26T17:16:26.512Z,67.36
2022-10-26T17:21:35.960Z,67.14
2022-10-26T17:26:43.623Z,67.01
2022-10-26T17:31:51.601Z,67.37
2022-10-26T17:36:58.963Z,67.44
2022-10-26T17:42:07.123Z,68.49
2022-10-26T17:47:14.531Z,68.98
2022-10-26T17:52:25.240Z,69.44
2022-10-26T17:57:33.758Z,70.17
2022-10-26T18:02:42.021Z,70.51
2022-10-26T18:07:49.763Z,70.94
2022-10-26T18:12:57.835Z,71.08
2022-10-26T18:18:05.363Z,71.13
2022-10-26T18:23:12.840Z,71.48
2022-10-26T18:28:20.353Z,71.51
2022-10-26T18:33:28.017Z,71.55
2022-10-26T18:38:35.939Z,71.85
2022-10-26T18:43:46.479Z,71.93
2022-10-26T18:48:54.496Z,72.06
2022-10-26T18:54:03.065Z,72.18
2022-10-26T18:59:10.977Z,72.25
2022-10-26T19:04:18.960Z,72.09
2022-10-26T19:09:27.003Z,72.41
2022-10-26T19:14:34.608Z,72.55
2022-10-26T19:19:42.190Z,72.56
2022-10-26T19:24:49.599Z,72.75
2022-10-26T19:29:56.982Z,72.83
2022-10-26T19:35:04.624Z,72.68
2022-10-26T19:40:13.932Z,72.94
2022-10-26T19:45:22.617Z,72.81
2022-10-26T19:50:30.264Z,72.91
2022-10-26T19:55:37.902Z,73.25
2022-10-26T20:00:45.807Z,73.27
2022-10-26T20:05:53.813Z,73.34
2022-10-26T20:11:01.690Z,73.12
2022-10-26T20:16:11.025Z,73.51
2022-10-26T20:21:19.159Z,73.22
2022-10-26T20:26:28.530Z,73.43
2022-10-26T20:31:36.886Z,73.27
2022-10-26T20:36:44.379Z,73.20
2022-10-26T20:41:53.466Z,73.26
2022-10-26T20:47:02.325Z,73.26
2022-10-26T20:52:22.169Z,73.53
2022-10-26T20:57:34.079Z,73.54
2022-10-26T21:02:41.860Z,73.51
2022-10-26T21:07:49.591Z,73.49
2022-10-26T21:12:57.101Z,73.65
2022-10-26T21:18:04.715Z,73.80
2022-10-26T21:23:12.266Z,73.72
2022-10-26T21:28:19.715Z,74.17
2022-10-26T21:33:32.614Z,74.05
2022-10-26T21:38:40.957Z,74.11
2022-10-26T21:43:59.145Z,74.16
2022-10-26T21:49:16.537Z,74.12
2022-10-26T21:54:24.303Z,74.28
2022-10-26T21:59:31.768Z,74.30
2022-10-26T22:04:39.347Z,74.28
2022-10-26T22:10:00.281Z,74.44
2022-10-26T22:15:14.746Z,74.24
2022-10-26T22:20:22.481Z,74.21
2022-10-26T22:25:29.858Z,74.53
2022-10-26T22:30:40.110Z,74.31
2022-10-26T22:35:46.869Z,74.41
2022-10-26T22:40:59.534Z,74.67
2022-10-26T22:46:08.982Z,75.02
2022-10-26T22:51:21.065Z,74.78
2022-10-26T22:56:30.267Z,74.90
2022-10-26T23:01:42.162Z,74.69
2022-10-26T23:06:50.159Z,75.02
2022-10-26T23:11:57.792Z,74.84
2022-10-26T23:17:06.585Z,75.19
2022-10-26T23:22:14.389Z,74.97
2022-10-26T23:27:21.706Z,74.85
2022-10-26T23:32:30.149Z,75.25
2022-10-26T23:37:37.982Z,75.10
2022-10-26T23:42:46.021Z,75.10
2022-10-26T23:47:54.051Z,75.17
2022-10-26T23:53:01.863Z,75.35
2022-10-26T23:58:09.322Z,75.26
